Time;durP1;ratioP1;P1;durP2;ratioP2;P2;SDS_P1;SDS_P2;PMS_P1;PMS_P2;Temp;Humidity;BMP_temperature;BMP_pressure;BME280_temperature;BME280_humidity;BME280_pressure;Samples;Min_cycle;Max_cycle;Signal;HPM_P1;HPM_P2
2021/01/24 00:01:14;;;;;;;3.97;3.60;;;2.20;99.90;;;;;;5081279;28;20650;-67
2021/01/24 00:03:39;;;;;;;3.70;3.40;;;2.20;99.90;;;;;;5072699;28;20181;-67
2021/01/24 00:06:05;;;;;;;3.77;3.40;;;2.20;99.90;;;;;;5078528;28;20189;-67
2021/01/24 00:08:31;;;;;;;3.80;3.50;;;2.20;99.90;;;;;;5081460;28;20665;-67
2021/01/24 00:10:56;;;;;;;3.67;3.37;;;2.20;99.90;;;;;;5077205;28;20728;-68
2021/01/24 00:13:22;;;;;;;4.23;3.83;;;2.20;99.90;;;;;;5079748;28;20393;-68
2021/01/24 00:15:47;;;;;;;4.33;3.93;;;2.10;99.90;;;;;;5074033;28;20210;-68
2021/01/24 00:18:13;;;;;;;4.30;4.00;;;2.20;99.90;;;;;;5076542;28;20213;-68
2021/01/24 00:20:39;;;;;;;4.73;4.33;;;2.10;99.90;;;;;;5077182;28;20194;-68
2021/01/24 00:23:04;;;;;;;4.90;4.50;;;2.10;99.90;;;;;;5076385;28;20295;-67
2021/01/24 00:25:30;;;;;;;5.13;4.63;;;2.00;99.90;;;;;;5080136;28;20210;-68
2021/01/24 00:27:55;;;;;;;5.93;5.43;;;2.00;99.90;;;;;;5083883;28;20265;-69
2021/01/24 00:30:21;;;;;;;5.60;5.10;;;2.00;99.90;;;;;;5078999;28;20175;-68
2021/01/24 00:32:47;;;;;;;6.50;5.97;;;2.00;99.90;;;;;;5080872;28;20209;-69
2021/01/24 00:35:13;;;;;;;6.23;5.73;;;1.90;99.90;;;;;;5085644;28;20185;-69
2021/01/24 00:37:39;;;;;;;6.07;5.57;;;1.90;99.90;;;;;;5082995;28;20213;-68
2021/01/24 00:40:07;;;;;;;6.33;5.83;;;1.90;99.90;;;;;;5089191;28;20179;-68
2021/01/24 00:42:32;;;;;;;6.87;6.27;;;1.90;99.90;;;;;;5085259;28;20196;-67
2021/01/24 00:44:58;;;;;;;7.40;6.80;;;1.80;99.90;;;;;;5089007;28;20207;-67
2021/01/24 00:47:24;;;;;;;7.93;7.23;;;1.80;99.90;;;;;;5076154;28;20218;-67
2021/01/24 00:49:49;;;;;;;6.63;6.03;;;1.80;99.90;;;;;;5089910;28;20237;-67
2021/01/24 00:52:15;;;;;;;7.27;6.67;;;1.70;99.90;;;;;;5093786;28;20183;-67
2021/01/24 00:54:40;;;;;;;8.07;7.27;;;1.70;99.90;;;;;;5098664;28;20192;-67
2021/01/24 00:57:06;;;;;;;8.60;7.80;;;1.70;99.90;;;;;;5104283;28;20185;-67
2021/01/24 00:59:32;;;;;;;8.63;7.83;;;1.70;99.90;;;;;;5100764;28;20210;-67
2021/01/24 01:01:57;;;;;;;8.33;7.60;;;1.70;99.90;;;;;;5077469;28;20682;-68
2021/01/24 01:04:23;;;;;;;8.20;7.40;;;1.70;99.90;;;;;;5081814;28;20231;-68
2021/01/24 01:06:49;;;;;;;9.00;8.10;;;1.70;99.90;;;;;;5085305;28;20605;-68
2021/01/24 01:09:15;;;;;;;7.67;6.97;;;1.70;99.90;;;;;;5086933;28;20201;-67
2021/01/24 01:11:41;;;;;;;7.80;7.03;;;1.70;99.90;;;;;;5080202;28;20188;-67
2021/01/24 01:14:06;;;;;;;6.20;5.67;;;1.80;99.90;;;;;;5084757;28;20551;-67
2021/01/24 01:16:32;;;;;;;5.80;5.30;;;1.80;99.90;;;;;;5076550;28;20209;-67
2021/01/24 01:18:57;;;;;;;4.70;4.30;;;1.90;99.90;;;;;;5083750;28;20363;-69
2021/01/24 01:21:39;;;;;;;4.73;4.33;;;1.90;99.90;;;;;;5083727;28;20241;-68
2021/01/24 01:24:06;;;;;;;3.73;3.47;;;2.00;99.90;;;;;;5080314;28;20214;-68
2021/01/24 01:26:32;;;;;;;3.63;3.33;;;2.10;99.90;;;;;;5084345;28;20190;-68
2021/01/24 01:28:58;;;;;;;3.13;2.83;;;2.20;99.90;;;;;;5074708;28;20199;-69
2021/01/24 01:31:24;;;;;;;3.67;3.30;;;2.20;99.90;;;;;;5080864;28;20548;-67
2021/01/24 01:33:49;;;;;;;3.37;3.10;;;2.20;99.90;;;;;;5081744;28;20211;-67
2021/01/24 01:36:15;;;;;;;3.30;3.00;;;2.20;99.90;;;;;;5081141;28;20187;-69
2021/01/24 01:38:41;;;;;;;3.03;2.83;;;2.20;99.90;;;;;;5082453;28;20710;-67
2021/01/24 01:41:06;;;;;;;3.20;2.90;;;2.20;99.90;;;;;;5078981;28;20197;-68
2021/01/24 01:43:32;;;;;;;4.13;2.80;;;2.20;99.90;;;;;;5080213;28;20664;-67
2021/01/24 01:45:57;;;;;;;3.40;3.10;;;2.10;99.90;;;;;;5086218;28;20179;-67
2021/01/24 01:48:23;;;;;;;2.60;2.40;;;2.10;99.90;;;;;;5078162;28;20742;-68
2021/01/24 01:50:49;;;;;;;2.70;2.50;;;2.10;99.90;;;;;;5083800;28;20182;-67
2021/01/24 01:53:15;;;;;;;2.43;2.33;;;2.10;99.90;;;;;;5077617;28;20186;-67
2021/01/24 01:55:40;;;;;;;2.37;2.27;;;2.10;99.90;;;;;;5083138;28;20182;-66
2021/01/24 01:58:06;;;;;;;2.90;2.70;;;2.00;99.90;;;;;;5091112;28;20266;-67
2021/01/24 02:00:31;;;;;;;2.53;2.33;;;2.00;99.90;;;;;;5078743;28;20222;-66
2021/01/24 02:03:31;;;;;;;2.50;2.30;;;2.00;99.90;;;;;;5078591;28;20218;-67
2021/01/24 02:05:59;;;;;;;2.23;2.03;;;2.00;99.90;;;;;;5075176;28;20196;-66
2021/01/24 02:08:33;;;;;;;2.37;2.27;;;2.10;99.90;;;;;;5076697;28;20204;-69
2021/01/24 02:11:30;;;;;;;2.10;2.00;;;2.10;99.90;;;;;;5078620;28;20187;-70
2021/01/24 02:14:22;;;;;;;2.37;2.17;;;2.20;99.90;;;;;;5076113;28;20202;-68
2021/01/24 02:16:48;;;;;;;3.17;2.40;;;2.20;99.90;;;;;;5078803;28;20256;-67
2021/01/24 02:19:26;;;;;;;2.60;2.40;;;2.20;99.90;;;;;;5073465;28;20209;-68
2021/01/24 02:21:55;;;;;;;2.20;2.10;;;2.20;99.90;;;;;;5082694;28;20579;-67
2021/01/24 02:24:22;;;;;;;3.20;2.37;;;2.20;99.90;;;;;;5076062;28;20372;-67
2021/01/24 02:27:11;;;;;;;2.10;2.00;;;2.20;99.90;;;;;;5076864;28;20233;-66
2021/01/24 02:29:55;;;;;;;2.30;2.10;;;2.20;99.90;;;;;;5077078;28;20205;-66
2021/01/24 02:32:23;;;;;;;1.90;1.80;;;2.10;99.90;;;;;;5075874;28;20267;-66
2021/01/24 02:34:51;;;;;;;1.70;1.60;;;2.00;99.90;;;;;;5080542;28;20182;-67
2021/01/24 02:37:17;;;;;;;2.07;1.77;;;2.00;99.90;;;;;;5080413;28;20244;-67
2021/01/24 02:39:43;;;;;;;1.70;1.60;;;2.00;99.90;;;;;;5079944;28;20202;-67
2021/01/24 02:42:10;;;;;;;1.90;1.80;;;1.90;99.90;;;;;;5080773;28;20212;-66
2021/01/24 02:44:38;;;;;;;1.00;1.00;;;2.00;99.90;;;;;;5086787;28;20677;-68
2021/01/24 02:47:04;;;;;;;1.30;1.20;;;2.00;99.90;;;;;;5077388;28;20557;-67
2021/01/24 02:49:30;;;;;;;1.10;1.10;;;2.10;99.90;;;;;;5086971;28;20230;-66
2021/01/24 02:51:58;;;;;;;1.23;1.20;;;2.10;99.90;;;;;;5085656;27;20245;-67
2021/01/24 02:54:25;;;;;;;1.00;1.00;;;2.10;99.90;;;;;;5084629;28;20290;-67
2021/01/24 02:56:52;;;;;;;1.10;1.10;;;2.00;99.90;;;;;;5083759;28;20187;-68
2021/01/24 02:59:19;;;;;;;1.00;1.00;;;2.00;99.90;;;;;;5085491;28;20234;-66
2021/01/24 03:01:44;;;;;;;1.23;1.23;;;2.00;99.90;;;;;;5081311;28;20178;-68
2021/01/24 03:04:10;;;;;;;0.97;0.97;;;2.00;99.90;;;;;;5078253;28;20277;-66
2021/01/24 03:06:36;;;;;;;1.33;1.23;;;2.00;99.90;;;;;;5075575;28;20203;-66
2021/01/24 03:09:02;;;;;;;1.07;1.07;;;1.90;99.90;;;;;;5080058;28;20207;-66
2021/01/24 03:11:30;;;;;;;1.30;1.20;;;1.90;99.90;;;;;;5082632;28;20193;-69
2021/01/24 03:14:04;;;;;;;1.30;1.30;;;1.90;99.90;;;;;;5079082;28;20244;-68
2021/01/24 03:16:31;;;;;;;1.53;1.43;;;1.90;99.90;;;;;;5082141;28;20201;-67
2021/01/24 03:18:59;;;;;;;1.53;1.43;;;1.90;99.90;;;;;;5079873;28;20487;-68
2021/01/24 03:21:26;;;;;;;1.70;1.60;;;1.80;99.90;;;;;;5087666;28;20231;-66
2021/01/24 03:23:53;;;;;;;1.70;1.60;;;1.80;99.90;;;;;;5081071;28;20601;-67
2021/01/24 03:26:19;;;;;;;1.57;1.47;;;1.80;99.90;;;;;;5079363;28;20518;-68
2021/01/24 03:28:44;;;;;;;1.40;1.40;;;1.70;99.90;;;;;;5077395;28;20208;-66
2021/01/24 03:31:10;;;;;;;1.70;1.60;;;1.70;99.90;;;;;;5082895;28;20621;-68
2021/01/24 03:33:38;;;;;;;2.30;2.20;;;1.70;99.90;;;;;;5082258;28;20779;-67
2021/01/24 03:36:04;;;;;;;1.70;1.60;;;1.70;99.90;;;;;;5075430;28;20302;-68
2021/01/24 03:38:30;;;;;;;2.20;2.00;;;1.70;99.90;;;;;;5077004;28;20214;-68
2021/01/24 03:40:56;;;;;;;2.10;2.00;;;1.70;99.90;;;;;;5077145;28;20602;-68
2021/01/24 03:43:22;;;;;;;2.03;1.93;;;1.70;99.90;;;;;;5080274;28;20196;-68
2021/01/24 03:45:47;;;;;;;2.80;2.20;;;1.70;99.90;;;;;;5082597;28;20217;-68
2021/01/24 03:48:13;;;;;;;2.70;2.50;;;1.70;99.90;;;;;;5069603;28;20297;-70
2021/01/24 03:50:39;;;;;;;2.37;2.27;;;1.80;99.90;;;;;;5086821;28;20192;-68
2021/01/24 03:53:04;;;;;;;2.97;2.77;;;1.80;99.90;;;;;;5077083;28;20241;-70
2021/01/24 03:55:30;;;;;;;2.60;2.40;;;1.80;99.90;;;;;;5072242;28;20193;-71
2021/01/24 03:57:55;;;;;;;2.80;2.60;;;1.80;99.90;;;;;;5079835;28;20215;-70
2021/01/24 04:00:21;;;;;;;2.87;2.67;;;1.70;99.90;;;;;;5078891;28;21539;-70
2021/01/24 04:02:47;;;;;;;2.70;2.50;;;1.70;99.90;;;;;;5082821;28;20218;-71
2021/01/24 04:05:13;;;;;;;2.83;2.63;;;1.60;99.90;;;;;;5076595;28;20245;-71
2021/01/24 04:07:39;;;;;;;3.23;3.03;;;1.50;99.90;;;;;;5081957;28;20186;-71
2021/01/24 04:10:05;;;;;;;3.20;2.90;;;1.50;99.90;;;;;;5075445;28;20185;-71
2021/01/24 04:12:32;;;;;;;3.37;3.07;;;1.40;99.90;;;;;;5080946;28;20192;-71
2021/01/24 04:14:57;;;;;;;4.13;3.50;;;1.30;99.90;;;;;;5074930;28;21838;-71
2021/01/24 04:17:23;;;;;;;4.60;3.80;;;1.20;99.90;;;;;;5077643;28;20226;-70
2021/01/24 04:19:48;;;;;;;3.90;3.47;;;1.20;99.90;;;;;;5079012;28;20234;-68
2021/01/24 04:22:14;;;;;;;3.80;3.50;;;1.10;99.90;;;;;;5077765;28;20202;-68
2021/01/24 04:24:40;;;;;;;3.87;3.57;;;1.10;99.50;;;;;;5077630;28;20205;-68
2021/01/24 04:27:05;;;;;;;3.00;2.80;;;1.10;99.30;;;;;;5083379;28;20656;-65
2021/01/24 04:29:31;;;;;;;2.87;2.67;;;1.20;97.30;;;;;;5075526;28;20263;-68
2021/01/24 04:31:56;;;;;;;2.90;2.70;;;1.10;97.60;;;;;;5074262;28;20181;-68
2021/01/24 04:34:22;;;;;;;2.80;2.60;;;1.10;98.00;;;;;;5078688;28;20671;-68
2021/01/24 04:36:47;;;;;;;2.83;2.60;;;1.10;97.10;;;;;;5076663;28;20187;-68
2021/01/24 04:39:13;;;;;;;2.70;2.50;;;1.10;96.30;;;;;;5083703;28;20300;-67
2021/01/24 04:41:39;;;;;;;3.40;2.70;;;1.00;96.80;;;;;;5079161;28;20190;-69
2021/01/24 04:44:06;;;;;;;3.37;3.00;;;1.00;97.60;;;;;;5082106;28;20236;-68
2021/01/24 04:46:37;;;;;;;3.17;2.80;;;0.90;97.90;;;;;;5085789;28;20188;-69
2021/01/24 04:49:04;;;;;;;3.23;2.97;;;0.90;97.00;;;;;;5076356;28;20208;-68
2021/01/24 04:51:30;;;;;;;3.43;2.97;;;0.90;97.10;;;;;;5080119;28;20185;-67
2021/01/24 04:53:57;;;;;;;3.00;2.70;;;0.90;97.50;;;;;;5079403;28;20189;-67
2021/01/24 04:56:23;;;;;;;4.00;3.57;;;0.90;96.60;;;;;;5081082;28;20194;-67
2021/01/24 04:58:52;;;;;;;3.53;3.23;;;0.80;97.30;;;;;;5087124;28;20213;-68
2021/01/24 05:01:20;;;;;;;3.93;3.20;;;0.80;97.20;;;;;;5082185;28;20255;-68
2021/01/24 05:03:48;;;;;;;3.77;3.07;;;0.80;97.20;;;;;;5075430;28;20186;-67
2021/01/24 05:06:13;;;;;;;3.27;3.07;;;0.80;96.80;;;;;;5082277;28;20217;-68
2021/01/24 05:08:44;;;;;;;3.80;3.37;;;0.80;96.20;;;;;;5076226;28;20235;-67
2021/01/24 05:11:09;;;;;;;3.10;2.80;;;0.80;97.10;;;;;;5077893;28;20190;-67
2021/01/24 05:13:35;;;;;;;3.70;3.37;;;0.70;96.80;;;;;;5085013;28;20193;-67
2021/01/24 05:16:01;;;;;;;4.00;3.60;;;0.70;97.00;;;;;;5081408;28;20553;-68
2021/01/24 05:18:27;;;;;;;5.03;3.37;;;0.70;97.30;;;;;;5085669;28;20286;-68
2021/01/24 05:20:53;;;;;;;3.40;3.10;;;0.60;97.50;;;;;;5078172;28;20253;-67
2021/01/24 05:23:21;;;;;;;3.70;3.40;;;0.60;97.50;;;;;;5083309;28;20281;-67
2021/01/24 05:25:46;;;;;;;3.20;2.93;;;0.60;97.60;;;;;;5074403;28;20204;-68
2021/01/24 05:28:19;;;;;;;3.30;3.00;;;0.60;97.40;;;;;;5080950;28;20212;-69
2021/01/24 05:30:45;;;;;;;3.47;3.17;;;0.60;97.40;;;;;;5086604;28;20276;-68
2021/01/24 05:33:14;;;;;;;4.07;2.80;;;0.60;97.30;;;;;;5084874;28;20176;-69
2021/01/24 05:35:51;;;;;;;3.57;3.17;;;0.60;97.60;;;;;;5087689;28;20244;-68
2021/01/24 05:38:36;;;;;;;5.43;3.40;;;0.60;97.40;;;;;;5089473;28;20249;-68
2021/01/24 05:41:10;;;;;;;5.20;3.30;;;0.60;96.90;;;;;;5090272;28;20208;-68
2021/01/24 05:43:39;;;;;;;4.37;3.50;;;0.60;96.30;;;;;;5077159;28;20697;-68
2021/01/24 05:46:06;;;;;;;6.67;3.07;;;0.60;96.10;;;;;;5084705;28;20656;-67
2021/01/24 05:48:34;;;;;;;4.43;4.03;;;0.60;95.70;;;;;;5077381;28;20703;-67
2021/01/24 05:51:06;;;;;;;6.37;3.43;;;0.60;95.90;;;;;;5086070;28;20178;-67
2021/01/24 05:53:44;;;;;;;6.47;3.53;;;0.60;96.00;;;;;;5081272;28;20214;-69
2021/01/24 05:56:11;;;;;;;3.70;3.40;;;0.60;96.30;;;;;;5077253;28;20533;-67
2021/01/24 05:58:39;;;;;;;3.93;3.53;;;0.50;96.10;;;;;;5074472;28;20554;-68
2021/01/24 06:01:05;;;;;;;4.03;3.63;;;0.50;95.80;;;;;;5075345;28;20216;-69
2021/01/24 06:03:33;;;;;;;5.00;4.60;;;0.50;96.10;;;;;;5080721;28;20723;-69
2021/01/24 06:05:58;;;;;;;6.53;4.23;;;0.40;96.20;;;;;;5084129;28;20572;-68
2021/01/24 06:08:24;;;;;;;4.60;4.20;;;0.40;96.60;;;;;;5073765;28;20203;-67
2021/01/24 06:10:51;;;;;;;4.70;3.70;;;0.40;96.90;;;;;;5092561;28;20183;-69
2021/01/24 06:13:25;;;;;;;3.67;3.37;;;0.30;97.00;;;;;;5085966;28;20269;-69
2021/01/24 06:15:52;;;;;;;4.53;4.10;;;0.30;97.10;;;;;;5081292;28;20236;-69
2021/01/24 06:18:23;;;;;;;4.20;3.80;;;0.30;97.50;;;;;;5086242;28;20229;-68
2021/01/24 06:20:55;;;;;;;4.93;4.13;;;0.20;98.20;;;;;;5076991;28;20254;-68
2021/01/24 06:23:33;;;;;;;8.10;5.80;;;0.20;98.30;;;;;;5077172;28;20188;-68
2021/01/24 06:26:15;;;;;;;8.43;6.20;;;0.20;98.50;;;;;;5081405;28;20253;-68
2021/01/24 06:28:44;;;;;;;6.30;5.30;;;0.10;98.80;;;;;;5088553;28;20683;-69
2021/01/24 06:31:14;;;;;;;5.97;4.00;;;0.10;99.10;;;;;;5084308;28;20243;-69
2021/01/24 06:33:43;;;;;;;4.97;3.77;;;0.10;99.00;;;;;;5081499;28;20180;-69
2021/01/24 06:36:10;;;;;;;5.70;4.33;;;0.10;99.00;;;;;;5077614;28;20185;-68
2021/01/24 06:38:41;;;;;;;4.50;3.77;;;0.10;98.90;;;;;;5081601;28;20261;-69
2021/01/24 06:41:09;;;;;;;4.80;4.37;;;0.10;99.10;;;;;;5086190;28;20263;-68
2021/01/24 06:43:47;;;;;;;5.27;4.57;;;0.20;98.60;;;;;;5081287;28;20201;-69
2021/01/24 06:46:39;;;;;;;5.47;3.97;;;0.20;99.00;;;;;;5078096;28;20189;-68
2021/01/24 06:49:04;;;;;;;4.50;4.10;;;0.20;98.20;;;;;;5078969;28;20213;-68
2021/01/24 06:51:37;;;;;;;5.43;3.73;;;0.30;98.40;;;;;;5087783;28;20186;-68
2021/01/24 06:54:25;;;;;;;4.83;3.70;;;0.30;97.70;;;;;;5088289;28;20185;-68
2021/01/24 06:56:51;;;;;;;4.47;4.07;;;0.40;97.60;;;;;;5078947;28;20196;-68
2021/01/24 06:59:29;;;;;;;4.53;3.77;;;0.40;97.60;;;;;;5082076;28;20706;-70
2021/01/24 07:02:35;;;;;;;4.23;3.67;;;0.40;97.40;;;;;;5073972;28;20196;-68
2021/01/24 07:05:18;;;;;;;4.27;3.83;;;0.40;97.20;;;;;;5091708;28;20201;-70
2021/01/24 07:07:45;;;;;;;4.07;3.67;;;0.40;96.90;;;;;;5075337;28;20198;-70
2021/01/24 07:10:36;;;;;;;6.73;3.90;;;0.40;96.90;;;;;;5077231;28;20190;-69
2021/01/24 07:13:30;;;;;;;7.30;4.30;;;0.50;97.10;;;;;;5082693;28;20202;-68
2021/01/24 07:15:56;;;;;;;5.77;4.77;;;0.50;97.20;;;;;;5075597;28;20202;-69
2021/01/24 07:18:25;;;;;;;5.43;3.80;;;0.50;97.00;;;;;;5084840;28;20221;-69
2021/01/24 07:20:53;;;;;;;6.20;3.63;;;0.50;97.20;;;;;;5081771;28;20731;-69
2021/01/24 07:23:19;;;;;;;6.47;4.20;;;0.40;97.40;;;;;;5090189;28;20186;-68
2021/01/24 07:25:45;;;;;;;4.83;4.30;;;0.40;97.40;;;;;;5078438;28;20218;-68
2021/01/24 07:28:18;;;;;;;4.43;4.03;;;0.40;97.60;;;;;;5078886;28;20498;-69
2021/01/24 07:30:43;;;;;;;4.67;4.10;;;0.30;97.80;;;;;;5080017;28;20196;-70
2021/01/24 07:33:09;;;;;;;4.23;3.83;;;0.30;97.90;;;;;;5088540;28;20267;-68
2021/01/24 07:35:36;;;;;;;4.90;4.17;;;0.30;98.10;;;;;;5076448;28;20232;-69
2021/01/24 07:38:02;;;;;;;4.53;3.70;;;0.30;98.30;;;;;;5079031;28;20279;-69
2021/01/24 07:40:28;;;;;;;5.70;4.37;;;0.30;98.60;;;;;;5076789;28;20194;-70
2021/01/24 07:42:55;;;;;;;4.63;4.13;;;0.30;98.80;;;;;;5080843;28;20544;-68
2021/01/24 07:45:21;;;;;;;4.93;4.00;;;0.30;98.50;;;;;;5080492;28;20514;-70
2021/01/24 07:47:47;;;;;;;4.37;3.97;;;0.60;98.30;;;;;;5075062;28;20191;-68
2021/01/24 07:50:13;;;;;;;4.20;3.73;;;1.10;97.40;;;;;;5079916;28;20623;-68
2021/01/24 07:52:39;;;;;;;4.20;3.80;;;1.60;95.40;;;;;;5075377;28;20192;-69
2021/01/24 07:55:06;;;;;;;4.60;3.50;;;2.10;94.00;;;;;;5083682;28;20190;-70
2021/01/24 07:57:32;;;;;;;3.70;3.30;;;2.90;91.60;;;;;;5071149;28;20525;-69
2021/01/24 07:59:58;;;;;;;3.77;3.47;;;2.90;90.20;;;;;;5076103;28;20210;-69
2021/01/24 08:02:26;;;;;;;3.47;3.17;;;2.40;91.60;;;;;;5073914;28;20207;-70
2021/01/24 08:04:52;;;;;;;4.37;3.60;;;2.20;92.10;;;;;;5075102;28;20206;-69
2021/01/24 08:07:18;;;;;;;3.90;3.60;;;2.30;92.70;;;;;;5076011;28;20226;-69
2021/01/24 08:09:43;;;;;;;3.77;3.47;;;2.40;92.50;;;;;;5078129;28;20221;-69
2021/01/24 08:12:13;;;;;;;5.70;3.30;;;2.30;92.90;;;;;;5079804;28;20194;-68
2021/01/24 08:14:40;;;;;;;3.20;2.90;;;3.10;90.90;;;;;;5081811;28;20178;-69
2021/01/24 08:17:11;;;;;;;4.63;3.20;;;4.10;85.80;;;;;;5077449;28;20574;-69
2021/01/24 08:19:37;;;;;;;3.60;2.50;;;5.20;77.50;;;;;;5079748;28;20223;-69
2021/01/24 08:22:03;;;;;;;4.50;3.07;;;5.40;73.80;;;;;;5079532;28;20287;-69
2021/01/24 08:24:30;;;;;;;3.00;2.50;;;5.70;73.00;;;;;;5073500;28;20291;-68
2021/01/24 08:26:56;;;;;;;4.93;3.33;;;6.00;70.10;;;;;;5075771;28;20182;-71
2021/01/24 08:29:22;;;;;;;3.63;2.73;;;6.00;69.30;;;;;;5078332;28;20203;-69
2021/01/24 08:31:48;;;;;;;7.47;4.20;;;5.80;70.90;;;;;;5076034;28;20273;-69
2021/01/24 08:34:16;;;;;;;4.17;3.60;;;6.00;69.00;;;;;;5076723;28;20294;-70
2021/01/24 08:36:42;;;;;;;3.73;2.90;;;6.20;68.50;;;;;;5073838;28;20195;-69
2021/01/24 08:39:07;;;;;;;4.43;3.20;;;5.30;70.20;;;;;;5081837;28;20217;-69
2021/01/24 08:41:38;;;;;;;7.77;3.50;;;3.70;79.20;;;;;;5075958;28;20602;-68
2021/01/24 08:44:10;;;;;;;4.17;3.27;;;3.40;86.90;;;;;;5081961;28;20213;-67
2021/01/24 08:46:50;;;;;;;3.80;3.40;;;4.90;78.50;;;;;;5080998;28;20540;-71
2021/01/24 08:49:23;;;;;;;5.50;3.30;;;6.20;71.50;;;;;;5085382;28;20680;-68
2021/01/24 08:51:57;;;;;;;5.63;2.80;;;7.60;62.10;;;;;;5081311;28;20178;-70
2021/01/24 08:54:37;;;;;;;3.07;2.83;;;7.80;59.20;;;;;;5075986;28;20667;-69
2021/01/24 08:57:13;;;;;;;3.50;3.10;;;8.10;57.40;;;;;;5085989;28;20217;-69
2021/01/24 08:59:56;;;;;;;4.13;2.90;;;7.90;58.30;;;;;;5073658;28;20921;-70
2021/01/24 09:02:29;;;;;;;3.40;2.50;;;8.20;56.70;;;;;;5073114;28;20225;-70
2021/01/24 09:04:55;;;;;;;3.40;3.10;;;7.90;57.70;;;;;;5074642;28;20213;-69
2021/01/24 09:07:21;;;;;;;4.37;3.40;;;8.50;56.20;;;;;;5072235;28;20261;-69
2021/01/24 09:09:48;;;;;;;5.87;3.10;;;7.40;57.50;;;;;;5078400;28;20198;-70
2021/01/24 09:12:16;;;;;;;4.13;3.43;;;5.70;63.40;;;;;;5079019;28;20190;-70
2021/01/24 09:14:42;;;;;;;5.70;3.47;;;4.30;70.90;;;;;;5079345;28;20640;-70
2021/01/24 09:17:16;;;;;;;3.30;3.00;;;3.40;78.40;;;;;;5085858;28;20564;-71
2021/01/24 09:19:44;;;;;;;3.70;3.17;;;2.90;83.60;;;;;;5080510;28;20859;-71
2021/01/24 09:22:12;;;;;;;4.37;3.33;;;2.40;88.70;;;;;;5073811;28;20699;-71
2021/01/24 09:24:38;;;;;;;4.80;3.60;;;2.20;90.50;;;;;;5080814;28;20291;-71
2021/01/24 09:27:05;;;;;;;3.47;2.93;;;2.00;92.20;;;;;;5079015;28;20444;-71
2021/01/24 09:29:34;;;;;;;4.13;3.17;;;1.90;92.10;;;;;;5081072;28;20198;-70
2021/01/24 09:31:59;;;;;;;3.50;3.20;;;1.90;92.50;;;;;;5083671;28;20183;-71
2021/01/24 09:34:25;;;;;;;4.73;3.00;;;2.00;92.50;;;;;;5082811;28;20650;-70
2021/01/24 09:36:51;;;;;;;5.13;3.20;;;2.00;92.40;;;;;;5080876;28;20185;-71
2021/01/24 09:39:16;;;;;;;3.40;2.90;;;2.00;93.00;;;;;;5077418;28;20734;-70
2021/01/24 09:41:42;;;;;;;4.03;3.23;;;2.20;92.50;;;;;;5086854;28;20182;-72
2021/01/24 09:44:07;;;;;;;5.60;3.20;;;2.30;92.60;;;;;;5084609;28;20609;-71
2021/01/24 09:46:34;;;;;;;5.37;3.40;;;2.20;92.80;;;;;;5079416;28;20182;-71
2021/01/24 09:48:59;;;;;;;3.50;3.20;;;2.20;93.30;;;;;;5079704;28;20203;-71
2021/01/24 09:51:25;;;;;;;6.63;4.00;;;2.20;93.20;;;;;;5076730;28;20182;-71
2021/01/24 09:53:52;;;;;;;4.27;3.10;;;2.20;93.80;;;;;;5079444;28;20357;-71
2021/01/24 09:56:19;;;;;;;3.60;2.97;;;2.30;93.20;;;;;;5075570;28;20182;-71
2021/01/24 09:58:46;;;;;;;4.50;3.00;;;2.50;93.30;;;;;;5077327;28;20194;-73
2021/01/24 10:01:12;;;;;;;3.20;2.90;;;2.50;92.60;;;;;;5075779;28;20220;-70
2021/01/24 10:03:41;;;;;;;7.80;3.00;;;2.60;93.20;;;;;;5085727;28;20189;-72
2021/01/24 10:06:09;;;;;;;4.40;2.70;;;2.80;91.40;;;;;;5082549;28;20210;-72
2021/01/24 10:08:35;;;;;;;3.50;3.20;;;2.90;91.20;;;;;;5080369;28;20297;-69
2021/01/24 10:11:00;;;;;;;4.30;3.20;;;3.20;90.90;;;;;;5082610;28;20235;-70
2021/01/24 10:13:26;;;;;;;3.90;3.10;;;3.80;89.80;;;;;;5078551;28;20646;-71
2021/01/24 10:15:52;;;;;;;3.50;3.00;;;4.10;85.40;;;;;;5085916;28;20212;-70
2021/01/24 10:18:21;;;;;;;5.33;3.50;;;4.50;83.40;;;;;;5079278;28;20266;-69
2021/01/24 10:20:47;;;;;;;5.10;3.97;;;4.40;81.90;;;;;;5087708;28;20190;-70
2021/01/24 10:23:15;;;;;;;3.83;2.90;;;4.50;82.30;;;;;;5082167;28;20183;-70
2021/01/24 10:25:40;;;;;;;3.93;3.07;;;4.50;79.60;;;;;;5090257;28;20207;-70
2021/01/24 10:28:06;;;;;;;5.10;2.60;;;4.60;77.50;;;;;;5085416;28;20206;-72
2021/01/24 10:30:32;;;;;;;4.37;3.80;;;4.90;75.30;;;;;;5078254;28;20179;-71
2021/01/24 10:32:57;;;;;;;3.73;3.00;;;5.10;75.50;;;;;;5078648;28;20212;-70
2021/01/24 10:35:23;;;;;;;3.40;3.10;;;5.50;72.70;;;;;;5085300;28;20189;-71
2021/01/24 10:37:49;;;;;;;2.93;2.43;;;5.70;70.20;;;;;;5077115;28;20186;-72
2021/01/24 10:40:15;;;;;;;6.27;3.97;;;5.30;69.80;;;;;;5074736;28;20213;-70
2021/01/24 10:42:41;;;;;;;4.07;3.13;;;4.70;70.90;;;;;;5076641;28;20533;-71
2021/01/24 10:45:08;;;;;;;3.73;2.90;;;4.40;73.10;;;;;;5079727;28;20752;-70
2021/01/24 10:47:34;;;;;;;6.27;3.00;;;4.30;73.00;;;;;;5074431;28;20180;-70
2021/01/24 10:50:00;;;;;;;6.27;3.90;;;4.30;72.40;;;;;;5074975;28;20209;-70
2021/01/24 10:52:25;;;;;;;6.13;4.23;;;4.50;72.40;;;;;;5076782;28;20187;-71
2021/01/24 10:54:51;;;;;;;4.10;2.53;;;4.70;71.30;;;;;;5074754;28;20663;-72
2021/01/24 10:57:16;;;;;;;3.27;2.70;;;4.50;69.10;;;;;;5078969;28;20538;-71
2021/01/24 10:59:42;;;;;;;5.07;3.20;;;4.40;70.00;;;;;;5075020;28;20293;-71
2021/01/24 11:02:08;;;;;;;2.60;2.40;;;4.60;70.00;;;;;;5073955;28;20200;-70
2021/01/24 11:04:33;;;;;;;2.77;2.40;;;4.90;67.10;;;;;;5080839;28;20207;-70
2021/01/24 11:07:03;;;;;;;2.90;2.50;;;4.90;66.40;;;;;;5076649;28;20705;-72
2021/01/24 11:09:29;;;;;;;5.20;2.77;;;4.70;67.60;;;;;;5071569;28;20225;-71
2021/01/24 11:11:55;;;;;;;3.13;2.90;;;5.00;66.40;;;;;;5075020;28;20214;-71
2021/01/24 11:14:21;;;;;;;3.47;2.37;;;5.90;63.80;;;;;;5074626;28;20196;-71
2021/01/24 11:16:46;;;;;;;3.53;2.20;;;6.00;60.20;;;;;;5073311;28;20182;-71
2021/01/24 11:19:12;;;;;;;2.73;2.17;;;5.70;61.90;;;;;;5075283;28;20209;-72
2021/01/24 11:21:37;;;;;;;2.50;2.30;;;5.20;62.40;;;;;;5077948;28;20214;-72
2021/01/24 11:24:03;;;;;;;2.53;2.33;;;5.50;62.00;;;;;;5084900;28;20186;-72
2021/01/24 11:26:29;;;;;;;4.67;2.53;;;6.50;59.60;;;;;;5073972;28;20359;-72
2021/01/24 11:28:54;;;;;;;2.70;2.50;;;6.50;57.70;;;;;;5075074;28;20202;-71
2021/01/24 11:31:20;;;;;;;4.00;3.07;;;6.20;58.90;;;;;;5082814;28;20375;-72
2021/01/24 11:33:46;;;;;;;2.60;2.40;;;6.20;57.80;;;;;;5077288;28;20190;-71
2021/01/24 11:36:12;;;;;;;3.70;2.43;;;6.70;57.70;;;;;;5080841;28;20344;-71
2021/01/24 11:38:38;;;;;;;2.90;2.60;;;7.90;55.20;;;;;;5084178;28;20656;-71
2021/01/24 11:41:05;;;;;;;3.83;2.47;;;7.20;55.00;;;;;;5082519;28;20544;-71
2021/01/24 11:43:31;;;;;;;2.70;1.97;;;6.30;58.20;;;;;;5086710;28;20259;-71
2021/01/24 11:45:57;;;;;;;4.20;2.40;;;6.30;58.00;;;;;;5072938;28;20297;-72
2021/01/24 11:48:23;;;;;;;2.97;2.20;;;6.10;59.20;;;;;;5074049;28;20747;-73
2021/01/24 11:50:53;;;;;;;2.20;2.00;;;5.40;59.90;;;;;;5075422;28;20183;-71
2021/01/24 11:53:20;;;;;;;2.40;2.10;;;4.70;61.90;;;;;;5078890;28;20185;-69
2021/01/24 11:55:45;;;;;;;2.60;2.40;;;4.30;65.70;;;;;;5086158;28;20180;-68
2021/01/24 11:58:11;;;;;;;3.87;2.83;;;4.00;66.40;;;;;;5074672;28;20313;-70
2021/01/24 12:00:37;;;;;;;4.37;2.83;;;4.10;68.40;;;;;;5079325;28;20183;-70
2021/01/24 12:03:03;;;;;;;2.20;2.00;;;4.60;67.50;;;;;;5075128;28;20280;-70
2021/01/24 12:05:29;;;;;;;2.83;2.60;;;5.20;63.60;;;;;;5078574;28;20607;-69
2021/01/24 12:07:54;;;;;;;2.13;1.93;;;6.60;60.50;;;;;;5080378;28;20195;-69
2021/01/24 12:10:20;;;;;;;2.77;2.47;;;6.60;56.90;;;;;;5073617;28;20181;-69
2021/01/24 12:12:45;;;;;;;2.10;1.90;;;6.70;56.60;;;;;;5072770;28;20299;-70
2021/01/24 12:15:11;;;;;;;2.97;2.10;;;6.10;57.40;;;;;;5075771;28;20178;-69
2021/01/24 12:17:37;;;;;;;3.60;2.50;;;5.60;59.40;;;;;;5072809;28;20218;-70
2021/01/24 12:20:03;;;;;;;7.07;2.87;;;5.40;61.00;;;;;;5080268;28;20193;-69
2021/01/24 12:22:29;;;;;;;6.20;3.40;;;5.20;61.50;;;;;;5078278;28;20193;-69
2021/01/24 12:24:54;;;;;;;3.17;2.87;;;5.50;61.10;;;;;;5085639;28;20280;-69
2021/01/24 12:27:20;;;;;;;3.70;3.20;;;5.60;60.40;;;;;;5081022;28;20526;-69
2021/01/24 12:29:45;;;;;;;5.00;2.70;;;5.50;60.50;;;;;;5083054;28;20202;-69
2021/01/24 12:32:11;;;;;;;3.67;3.10;;;5.40;59.90;;;;;;5080323;28;20269;-69
2021/01/24 12:34:37;;;;;;;3.70;2.70;;;5.40;60.70;;;;;;5083095;28;20180;-68
2021/01/24 12:37:02;;;;;;;3.03;2.53;;;5.30;62.50;;;;;;5084914;28;20759;-69
2021/01/24 12:39:28;;;;;;;3.30;2.80;;;5.60;60.60;;;;;;5080898;28;20201;-69
2021/01/24 12:41:53;;;;;;;3.53;2.27;;;5.70;60.00;;;;;;5082463;28;20278;-69
2021/01/24 12:44:19;;;;;;;7.23;3.53;;;6.70;58.30;;;;;;5082001;28;20203;-69
2021/01/24 12:46:45;;;;;;;5.60;2.80;;;7.60;56.10;;;;;;5081604;28;20193;-69
2021/01/24 12:49:11;;;;;;;3.37;2.30;;;9.20;52.10;;;;;;5079637;28;20750;-68
2021/01/24 12:51:36;;;;;;;4.50;2.90;;;9.80;49.00;;;;;;5085899;28;20256;-69
2021/01/24 12:54:02;;;;;;;4.00;2.43;;;10.30;47.30;;;;;;5082136;28;20183;-70
2021/01/24 12:56:28;;;;;;;3.20;2.90;;;9.70;46.80;;;;;;5085682;28;20179;-70
2021/01/24 12:58:53;;;;;;;3.93;3.40;;;9.60;47.50;;;;;;5082064;28;20195;-70
2021/01/24 13:01:19;;;;;;;5.33;2.57;;;8.80;49.10;;;;;;5081033;28;20179;-70